createdAt,value
2018-05-07T00:01:18.611Z,10.10
2018-05-07T00:03:47.082Z,10.10
2018-05-07T00:06:15.498Z,10.00
2018-05-07T00:08:44.662Z,10.00
2018-05-07T00:11:13.814Z,10.00
2018-05-07T00:13:42.263Z,10.00
2018-05-07T00:16:10.621Z,10.00
2018-05-07T00:18:38.967Z,9.90
2018-05-07T00:21:08.490Z,9.80
2018-05-07T00:23:37.366Z,9.80
2018-05-07T00:26:05.736Z,9.70
2018-05-07T00:28:34.878Z,9.70
2018-05-07T00:31:03.231Z,9.70
2018-05-07T00:33:32.531Z,9.50
2018-05-07T00:36:01.699Z,9.50
2018-05-07T00:38:30.071Z,9.50
2018-05-07T00:40:58.434Z,9.40
2018-05-07T00:43:26.807Z,9.40
2018-05-07T00:45:55.198Z,9.20
2018-05-07T00:48:23.558Z,9.10
2018-05-07T00:50:51.903Z,8.90
2018-05-07T00:53:20.452Z,8.80
2018-05-07T00:55:48.790Z,8.80
2018-05-07T00:58:17.932Z,8.40
2018-05-07T01:00:46.303Z,8.50
2018-05-07T01:03:15.533Z,8.40
2018-05-07T01:05:43.879Z,8.40
2018-05-07T01:08:12.331Z,8.40
2018-05-07T01:10:40.699Z,8.40
2018-05-07T01:13:09.210Z,8.40
2018-05-07T01:15:37.784Z,8.40
2018-05-07T01:18:06.166Z,8.40
2018-05-07T01:20:34.514Z,8.50
2018-05-07T01:23:03.000Z,8.50
2018-05-07T01:25:31.365Z,8.50
2018-05-07T01:27:59.747Z,8.40
2018-05-07T01:30:28.110Z,8.40
2018-05-07T01:32:57.231Z,8.50
2018-05-07T01:35:25.634Z,8.40
2018-05-07T01:37:54.047Z,8.40
2018-05-07T01:40:22.474Z,8.50
2018-05-07T01:42:51.634Z,8.50
2018-05-07T01:45:20.718Z,8.50
2018-05-07T01:47:49.246Z,8.50
2018-05-07T01:50:17.794Z,8.60
2018-05-07T01:52:46.142Z,8.60
2018-05-07T01:55:14.673Z,8.50
2018-05-07T01:57:43.192Z,8.50
2018-05-07T02:00:11.630Z,8.40
2018-05-07T02:02:39.988Z,8.40
2018-05-07T02:05:08.347Z,8.40
2018-05-07T02:07:37.822Z,8.30
2018-05-07T02:10:06.197Z,8.30
2018-05-07T02:12:34.723Z,8.30
2018-05-07T02:15:03.153Z,8.30
2018-05-07T02:17:32.102Z,8.20
2018-05-07T02:20:00.516Z,8.10
2018-05-07T02:22:28.869Z,8.00
2018-05-07T02:24:57.684Z,8.00
2018-05-07T02:27:26.272Z,8.00
2018-05-07T02:29:54.638Z,8.00
2018-05-07T02:32:22.971Z,7.90
2018-05-07T02:34:51.476Z,7.90
2018-05-07T02:37:19.843Z,7.90
2018-05-07T02:39:48.248Z,7.90
2018-05-07T02:42:16.594Z,7.90
2018-05-07T02:44:45.036Z,7.90
2018-05-07T02:47:13.438Z,7.80
2018-05-07T02:49:41.819Z,7.80
2018-05-07T02:52:10.360Z,7.80
2018-05-07T02:54:38.929Z,7.80
2018-05-07T02:57:07.346Z,7.80
2018-05-07T02:59:35.876Z,7.80
2018-05-07T03:02:04.263Z,7.80
2018-05-07T03:04:33.696Z,7.70
2018-05-07T03:07:02.088Z,7.70
2018-05-07T03:09:30.599Z,7.70
2018-05-07T03:11:59.753Z,7.70
2018-05-07T03:14:29.070Z,7.70
2018-05-07T03:16:57.434Z,7.70
2018-05-07T03:19:25.774Z,7.60
2018-05-07T03:21:54.150Z,7.50
2018-05-07T03:24:22.510Z,7.50
2018-05-07T03:26:50.914Z,7.50
2018-05-07T03:29:19.322Z,7.50
2018-05-07T03:31:48.443Z,7.50
2018-05-07T03:34:16.993Z,7.50
2018-05-07T03:36:45.360Z,7.50
2018-05-07T03:39:13.747Z,7.50
2018-05-07T03:41:42.115Z,7.60
2018-05-07T03:44:10.759Z,7.60
2018-05-07T03:46:39.878Z,7.80
2018-05-07T03:49:08.355Z,7.70
2018-05-07T03:51:37.815Z,7.90
2018-05-07T03:54:06.187Z,7.90
2018-05-07T03:56:34.626Z,8.00
2018-05-07T03:59:03.735Z,8.10
2018-05-07T04:01:32.842Z,8.10
2018-05-07T04:04:01.325Z,8.10
2018-05-07T04:08:54.346Z,8.20
2018-05-07T04:11:22.699Z,8.30
2018-05-07T04:13:51.994Z,8.50
2018-05-07T04:16:47.068Z,8.40
2018-05-07T04:19:27.392Z,8.60
2018-05-07T04:22:08.335Z,8.70
2018-05-07T04:24:36.682Z,8.70
2018-05-07T04:27:05.809Z,8.90
2018-05-07T04:29:34.195Z,8.80
2018-05-07T04:32:03.512Z,9.10
2018-05-07T04:34:31.911Z,9.10
2018-05-07T04:37:00.757Z,9.30
2018-05-07T04:39:29.186Z,9.50
2018-05-07T04:41:57.737Z,9.60
2018-05-07T04:44:26.091Z,9.80
2018-05-07T04:46:55.242Z,10.20
2018-05-07T04:49:23.586Z,10.20
2018-05-07T04:51:52.123Z,10.40
2018-05-07T04:54:20.623Z,10.60
2018-05-07T04:56:48.980Z,10.80
2018-05-07T04:59:17.430Z,11.00
2018-05-07T05:01:46.000Z,11.10
2018-05-07T05:04:14.358Z,11.30
2018-05-07T05:06:42.716Z,11.50
2018-05-07T05:09:11.140Z,11.70
2018-05-07T05:11:39.570Z,12.00
2018-05-07T05:14:09.182Z,12.20
2018-05-07T05:16:38.394Z,12.70
2018-05-07T05:19:07.699Z,13.00
2018-05-07T05:21:36.182Z,13.00
2018-05-07T05:24:04.595Z,13.20
2018-05-07T05:26:32.984Z,13.40
2018-05-07T05:29:01.404Z,13.60
2018-05-07T05:31:29.761Z,13.80
2018-05-07T05:33:58.311Z,14.10
2018-05-07T05:36:26.690Z,14.40
2018-05-07T05:38:56.399Z,15.00
2018-05-07T05:41:24.786Z,15.00
2018-05-07T05:43:53.221Z,15.30
2018-05-07T05:46:21.578Z,15.70
2018-05-07T05:48:49.940Z,16.00
2018-05-07T05:51:18.299Z,16.30
2018-05-07T05:53:46.782Z,16.70
2018-05-07T05:56:15.989Z,17.50
2018-05-07T05:58:44.316Z,17.50
2018-05-07T06:01:13.495Z,18.30
2018-05-07T06:03:41.995Z,18.30
2018-05-07T06:06:10.643Z,18.70
2018-05-07T06:08:39.766Z,19.60
2018-05-07T06:11:08.916Z,20.10
2018-05-07T06:13:37.275Z,20.00
2018-05-07T06:16:05.648Z,20.60
2018-05-07T06:18:34.095Z,21.20
2018-05-07T06:21:02.502Z,21.80
2018-05-07T06:23:30.868Z,22.50
2018-05-07T06:25:59.999Z,23.80
2018-05-07T06:28:29.145Z,24.60
2018-05-07T06:30:57.559Z,24.50
2018-05-07T06:33:26.683Z,26.10
2018-05-07T06:35:57.499Z,26.00
2018-05-07T06:38:26.643Z,27.60
2018-05-07T06:40:55.020Z,27.50
2018-05-07T06:43:23.559Z,28.40
2018-05-07T06:45:52.734Z,29.50
2018-05-07T06:48:38.776Z,29.50
2018-05-07T06:51:07.134Z,30.00
2018-05-07T06:53:35.646Z,30.30
2018-05-07T06:56:04.955Z,30.60
2018-05-07T06:58:33.323Z,30.80
2018-05-07T07:01:01.775Z,31.00
2018-05-07T07:03:30.287Z,31.00
2018-05-07T07:06:00.107Z,30.70
2018-05-07T07:08:28.599Z,30.40
2018-05-07T07:10:56.851Z,29.80
2018-05-07T07:13:26.131Z,29.70
2018-05-07T07:15:55.252Z,29.80
2018-05-07T07:18:23.619Z,29.80
2018-05-07T07:20:52.019Z,30.10
2018-05-07T07:23:20.551Z,29.90
2018-05-07T07:25:49.675Z,29.40
2018-05-07T07:28:18.083Z,29.40
2018-05-07T07:30:46.471Z,29.60
2018-05-07T07:33:15.007Z,30.10
2018-05-07T07:35:43.707Z,30.80
2018-05-07T07:38:12.095Z,31.80
2018-05-07T07:40:40.478Z,32.50
2018-05-07T07:43:08.827Z,33.20
2018-05-07T07:45:37.209Z,33.60
2018-05-07T07:48:06.410Z,34.30
2018-05-07T07:53:13.879Z,34.30
2018-05-07T07:55:42.234Z,34.50
2018-05-07T07:58:10.636Z,34.40
2018-05-07T08:00:39.003Z,34.10
2018-05-07T08:03:07.404Z,34.10
2018-05-07T08:05:35.771Z,34.00
2018-05-07T08:08:04.129Z,33.90
2018-05-07T08:10:33.274Z,33.60
2018-05-07T08:13:01.636Z,33.60
2018-05-07T08:15:30.019Z,33.50
2018-05-07T08:17:58.419Z,33.70
2018-05-07T08:20:27.934Z,33.80
2018-05-07T08:22:56.301Z,34.10
2018-05-07T08:25:24.651Z,33.90
2018-05-07T08:27:53.811Z,34.30
2018-05-07T08:30:22.182Z,34.20
2018-05-07T08:32:50.546Z,34.70
2018-05-07T08:35:18.955Z,35.30
2018-05-07T08:37:47.489Z,35.70
2018-05-07T08:40:16.024Z,36.30
2018-05-07T08:42:45.731Z,36.70
2018-05-07T08:45:14.107Z,36.70
2018-05-07T08:47:43.335Z,35.40
2018-05-07T08:50:11.686Z,35.30
2018-05-07T08:52:40.878Z,34.90
2018-05-07T08:55:09.259Z,34.90
2018-05-07T08:57:37.655Z,35.10
2018-05-07T09:00:06.226Z,35.60
2018-05-07T09:02:34.767Z,35.90
2018-05-07T09:05:03.122Z,35.90
2018-05-07T09:07:31.519Z,35.50
2018-05-07T09:09:59.863Z,35.20
2018-05-07T09:12:28.406Z,35.00
2018-05-07T09:14:56.981Z,34.80
2018-05-07T09:17:25.371Z,34.20
2018-05-07T09:19:53.720Z,33.80
2018-05-07T09:22:23.459Z,33.40
2018-05-07T09:24:52.882Z,33.30
2018-05-07T09:27:21.219Z,33.30
2018-05-07T09:29:49.596Z,32.90
2018-05-07T09:32:17.999Z,32.60
2018-05-07T09:34:46.359Z,32.30
2018-05-07T09:37:14.764Z,32.00
2018-05-07T09:39:44.064Z,31.40
2018-05-07T09:42:12.620Z,31.40
2018-05-07T09:44:41.675Z,31.40
2018-05-07T09:47:10.035Z,31.60
2018-05-07T09:49:38.382Z,31.60
2018-05-07T09:52:06.795Z,31.90
2018-05-07T09:54:35.195Z,32.20
2018-05-07T09:57:03.588Z,31.80
2018-05-07T09:59:31.991Z,31.40
2018-05-07T10:02:00.343Z,31.70
2018-05-07T10:04:28.717Z,32.10
2018-05-07T10:06:57.924Z,32.30
2018-05-07T10:09:26.363Z,31.90
2018-05-07T10:11:54.755Z,31.70
2018-05-07T10:14:23.119Z,31.00
2018-05-07T10:16:51.568Z,30.30
2018-05-07T10:19:20.807Z,29.60
2018-05-07T10:21:49.940Z,29.30
2018-05-07T10:24:19.713Z,29.20
2018-05-07T10:26:48.782Z,28.90
2018-05-07T10:29:17.999Z,28.80
2018-05-07T10:31:46.403Z,28.70
2018-05-07T10:34:14.966Z,28.50
2018-05-07T10:36:43.319Z,28.30
2018-05-07T10:39:14.488Z,28.30
2018-05-07T10:41:43.032Z,28.20
2018-05-07T10:44:12.187Z,28.10
2018-05-07T10:46:41.603Z,28.10
2018-05-07T10:49:10.914Z,27.70
2018-05-07T10:51:39.487Z,27.70
2018-05-07T10:54:07.843Z,27.60
2018-05-07T10:56:36.194Z,27.70
2018-05-07T10:59:05.371Z,27.60
2018-05-07T11:01:33.789Z,27.60
2018-05-07T11:04:02.155Z,27.40
2018-05-07T11:06:30.519Z,27.10
2018-05-07T11:08:59.806Z,26.80
2018-05-07T11:11:28.198Z,26.60
2018-05-07T11:13:56.567Z,26.60
2018-05-07T11:16:24.977Z,26.80
2018-05-07T11:18:53.371Z,27.00
2018-05-07T11:21:21.723Z,27.20
2018-05-07T11:23:50.247Z,27.30
2018-05-07T11:26:18.603Z,27.40
2018-05-07T11:28:46.979Z,27.60
2018-05-07T11:31:15.360Z,27.60
2018-05-07T11:33:43.859Z,27.70
2018-05-07T11:36:12.232Z,27.70
2018-05-07T11:38:41.559Z,27.80
2018-05-07T11:41:10.091Z,27.80
2018-05-07T11:43:38.466Z,27.80
2018-05-07T11:46:06.835Z,27.80
2018-05-07T11:48:35.251Z,27.80
2018-05-07T11:51:04.379Z,27.50
2018-05-07T11:53:32.735Z,27.40
2018-05-07T11:56:01.115Z,27.30
2018-05-07T11:58:29.495Z,27.30
2018-05-07T12:00:57.879Z,27.10
2018-05-07T12:03:26.271Z,27.10
2018-05-07T12:05:54.714Z,27.10
2018-05-07T12:08:23.935Z,27.20
2018-05-07T12:10:52.314Z,27.10
2018-05-07T12:13:20.707Z,27.30
2018-05-07T12:15:49.121Z,27.40
2018-05-07T12:18:17.546Z,27.60
2018-05-07T12:20:45.930Z,27.70
2018-05-07T12:23:15.150Z,28.00
2018-05-07T12:25:43.526Z,28.00
2018-05-07T12:28:12.894Z,28.10
2018-05-07T12:30:42.328Z,28.30
2018-05-07T12:33:10.799Z,28.20
2018-05-07T12:35:39.183Z,28.40
2018-05-07T12:38:07.575Z,28.50
2018-05-07T12:40:35.954Z,28.60
2018-05-07T12:43:05.251Z,28.40
2018-05-07T12:45:33.635Z,28.40
2018-05-07T12:48:02.062Z,28.40
2018-05-07T12:50:30.430Z,28.40
2018-05-07T12:52:58.811Z,28.30
2018-05-07T12:55:27.191Z,28.30
2018-05-07T12:57:55.586Z,28.30
2018-05-07T13:00:23.950Z,28.30
2018-05-07T13:02:52.334Z,28.40
2018-05-07T13:05:20.841Z,28.40
2018-05-07T13:07:49.379Z,28.40
2018-05-07T13:10:17.811Z,28.40
2018-05-07T13:12:46.239Z,28.20
2018-05-07T13:15:15.355Z,27.90
2018-05-07T13:17:43.894Z,27.90
2018-05-07T13:20:12.290Z,27.90
2018-05-07T13:22:41.596Z,28.10
2018-05-07T13:25:10.738Z,28.20
2018-05-07T13:27:39.123Z,28.20
2018-05-07T13:30:08.451Z,28.40
2018-05-07T13:32:36.863Z,28.40
2018-05-07T13:35:05.219Z,28.50
2018-05-07T13:37:33.625Z,28.50
2018-05-07T13:40:02.781Z,28.70
2018-05-07T13:42:31.153Z,28.70
2018-05-07T13:44:59.547Z,28.80
2018-05-07T13:47:29.587Z,29.00
2018-05-07T13:49:58.014Z,29.00
2018-05-07T13:52:26.367Z,29.00
2018-05-07T13:54:54.740Z,28.90
2018-05-07T13:57:23.115Z,28.70
2018-05-07T13:59:51.688Z,28.50
2018-05-07T14:02:20.072Z,28.30
2018-05-07T14:04:48.438Z,28.10
2018-05-07T14:07:17.618Z,27.80
2018-05-07T14:09:46.841Z,27.80
2018-05-07T14:12:15.396Z,27.70
2018-05-07T14:14:44.680Z,27.70
2018-05-07T14:17:13.067Z,27.70
2018-05-07T14:19:41.455Z,27.70
2018-05-07T14:22:10.596Z,27.80
2018-05-07T14:24:39.113Z,27.80
2018-05-07T14:27:07.478Z,27.80
2018-05-07T14:29:36.815Z,27.90
2018-05-07T14:32:06.793Z,28.00
2018-05-07T14:34:35.955Z,28.20
2018-05-07T14:37:05.122Z,28.20
2018-05-07T14:39:35.462Z,28.30
2018-05-07T14:42:03.855Z,28.30
2018-05-07T14:44:32.207Z,28.40
2018-05-07T14:47:00.625Z,28.30
2018-05-07T14:49:29.170Z,28.10
2018-05-07T14:51:58.344Z,27.40
2018-05-07T14:54:28.519Z,27.40
2018-05-07T14:56:56.886Z,27.30
2018-05-07T14:59:25.482Z,27.20
2018-05-07T15:01:53.867Z,27.30
2018-05-07T15:04:22.253Z,27.40
2018-05-07T15:06:50.666Z,27.40
2018-05-07T15:09:19.027Z,27.60
2018-05-07T15:11:48.156Z,27.50
2018-05-07T15:14:23.194Z,27.20
2018-05-07T15:16:51.583Z,27.20
2018-05-07T15:19:20.135Z,27.20
2018-05-07T15:21:48.539Z,27.10
2018-05-07T15:24:16.921Z,26.90
2018-05-07T15:26:45.294Z,26.80
2018-05-07T15:29:15.595Z,26.60
2018-05-07T15:31:44.595Z,26.60
2018-05-07T15:34:13.010Z,26.40
2018-05-07T15:36:41.380Z,26.30
2018-05-07T15:39:09.802Z,26.10
2018-05-07T15:41:38.193Z,26.00
2018-05-07T15:44:06.581Z,26.00
2018-05-07T15:46:34.972Z,26.00
2018-05-07T15:49:03.451Z,26.00
2018-05-07T15:51:31.811Z,26.00
2018-05-07T15:54:00.279Z,26.00
2018-05-07T15:56:28.727Z,26.00
2018-05-07T15:58:57.855Z,26.10
2018-05-07T16:01:26.269Z,26.10
2018-05-07T16:03:54.645Z,26.20
2018-05-07T16:06:23.037Z,26.20
2018-05-07T16:08:51.522Z,26.20
2018-05-07T16:11:19.869Z,26.10
2018-05-07T16:13:49.045Z,26.20
2018-05-07T16:16:18.183Z,26.30
2018-05-07T16:18:46.854Z,26.30
2018-05-07T16:21:16.039Z,26.30
2018-05-07T16:23:44.412Z,26.30
2018-05-07T16:26:13.556Z,26.30
2018-05-07T16:28:41.971Z,26.30
2018-05-07T16:31:10.448Z,26.30
2018-05-07T16:33:38.782Z,26.40
2018-05-07T16:36:07.967Z,26.30
2018-05-07T16:38:36.411Z,26.30
2018-05-07T16:41:05.906Z,26.20
2018-05-07T16:43:34.525Z,26.10
2018-05-07T16:46:02.879Z,26.00
2018-05-07T16:48:31.347Z,26.00
2018-05-07T16:50:59.666Z,25.80
2018-05-07T16:53:28.107Z,25.60
2018-05-07T16:55:57.267Z,25.50
2018-05-07T16:58:25.614Z,25.50
2018-05-07T17:00:54.711Z,25.30
2018-05-07T17:03:24.035Z,25.30
2018-05-07T17:05:52.418Z,25.20
2018-05-07T17:08:20.787Z,25.40
2018-05-07T17:10:49.193Z,25.40
2018-05-07T17:13:17.567Z,25.40
2018-05-07T17:15:45.935Z,25.40
2018-05-07T17:18:14.331Z,25.40
2018-05-07T17:20:44.526Z,25.30
2018-05-07T17:23:12.918Z,25.20
2018-05-07T17:25:42.031Z,25.30
2018-05-07T17:28:11.358Z,25.20
2018-05-07T17:30:39.800Z,25.20
2018-05-07T17:33:08.229Z,25.20
2018-05-07T17:35:36.604Z,25.30
2018-05-07T17:38:04.995Z,25.30
2018-05-07T17:40:34.336Z,25.30
2018-05-07T17:43:02.762Z,25.20
2018-05-07T17:45:40.954Z,24.90
2018-05-07T17:48:21.330Z,24.80
2018-05-07T17:50:49.786Z,24.90
2018-05-07T17:53:18.201Z,24.80
2018-05-07T17:55:46.587Z,24.90
2018-05-07T17:58:14.988Z,24.90
2018-05-07T18:00:43.541Z,24.90
2018-05-07T18:03:12.703Z,24.80
2018-05-07T18:05:41.923Z,24.80
2018-05-07T18:08:10.344Z,24.80
2018-05-07T18:10:38.776Z,24.70
2018-05-07T18:13:07.210Z,24.70
2018-05-07T18:15:35.583Z,24.60
2018-05-07T18:18:03.983Z,24.50
2018-05-07T18:20:32.422Z,24.30
2018-05-07T18:23:01.707Z,23.80
2018-05-07T18:25:30.383Z,23.40
2018-05-07T18:27:58.781Z,23.10
2018-05-07T18:30:27.339Z,22.80
2018-05-07T18:32:55.815Z,22.60
2018-05-07T18:35:25.132Z,22.50
2018-05-07T18:37:53.604Z,22.50
2018-05-07T18:40:22.951Z,22.40
2018-05-07T18:42:51.323Z,22.30
2018-05-07T18:45:19.739Z,22.40
2018-05-07T18:47:48.905Z,22.30
2018-05-07T18:50:17.284Z,22.30
2018-05-07T18:52:45.767Z,22.30
2018-05-07T18:55:15.081Z,22.20
2018-05-07T18:57:43.475Z,22.20
2018-05-07T19:00:12.748Z,22.00
2018-05-07T19:02:42.692Z,22.10
2018-05-07T19:05:11.097Z,21.90
2018-05-07T19:07:41.184Z,21.70
2018-05-07T19:10:09.564Z,22.00
2018-05-07T19:12:38.899Z,21.30
2018-05-07T19:15:07.462Z,21.30
2018-05-07T19:17:35.944Z,21.20
2018-05-07T19:20:04.346Z,21.20
2018-05-07T19:22:32.735Z,21.20
2018-05-07T19:25:01.163Z,21.10
2018-05-07T19:27:29.547Z,21.00
2018-05-07T19:29:58.219Z,20.80
2018-05-07T19:32:27.372Z,20.80
2018-05-07T19:34:55.771Z,20.70
2018-05-07T19:37:24.206Z,20.50
2018-05-07T19:39:52.593Z,20.40
2018-05-07T19:42:20.995Z,20.30
2018-05-07T19:44:49.391Z,20.20
2018-05-07T19:47:17.751Z,20.10
2018-05-07T19:49:46.311Z,20.00
2018-05-07T19:52:15.637Z,19.90
2018-05-07T19:54:44.786Z,19.60
2018-05-07T19:57:13.147Z,19.50
2018-05-07T19:59:41.534Z,19.30
2018-05-07T20:02:09.940Z,19.20
2018-05-07T20:04:38.327Z,19.10
2018-05-07T20:07:06.636Z,19.00
2018-05-07T20:09:37.684Z,18.90
2018-05-07T20:12:06.789Z,18.70
2018-05-07T20:14:36.469Z,18.70
2018-05-07T20:17:04.788Z,18.50
2018-05-07T20:19:33.288Z,18.40
2018-05-07T20:22:01.681Z,18.30
2018-05-07T20:24:29.995Z,18.10
2018-05-07T20:26:58.336Z,18.00
2018-05-07T20:29:27.439Z,17.70
2018-05-07T20:31:56.023Z,17.70
2018-05-07T20:34:24.355Z,17.60
2018-05-07T20:36:52.691Z,17.50
2018-05-07T20:39:22.693Z,17.20
2018-05-07T20:41:50.999Z,17.10
2018-05-07T20:44:20.307Z,16.90
2018-05-07T20:46:48.624Z,16.90
2018-05-07T20:49:16.987Z,16.80
2018-05-07T20:51:45.320Z,16.70
2018-05-07T20:54:13.639Z,16.50
2018-05-07T20:56:41.988Z,16.40
2018-05-07T20:59:10.393Z,16.20
2018-05-07T21:01:38.762Z,16.10
2018-05-07T21:04:07.117Z,16.00
2018-05-07T21:06:35.535Z,15.80
2018-05-07T21:09:04.620Z,15.60
2018-05-07T21:11:33.724Z,15.40
2018-05-07T21:14:02.934Z,15.30
2018-05-07T21:16:31.553Z,15.30
2018-05-07T21:18:59.963Z,15.20
2018-05-07T21:21:28.286Z,15.10
2018-05-07T21:23:57.368Z,15.00
2018-05-07T21:26:25.731Z,15.00
2018-05-07T21:28:54.048Z,15.00
2018-05-07T21:31:23.196Z,14.80
2018-05-07T21:33:51.604Z,14.80
2018-05-07T21:36:19.943Z,14.70
2018-05-07T21:38:49.238Z,14.70
2018-05-07T21:41:17.664Z,14.70
2018-05-07T21:43:45.969Z,14.70
2018-05-07T21:46:14.283Z,14.60
2018-05-07T21:48:42.686Z,14.60
2018-05-07T21:51:11.048Z,14.60
2018-05-07T21:53:39.383Z,14.50
2018-05-07T21:56:08.177Z,14.50
2018-05-07T21:58:36.491Z,14.50
2018-05-07T22:01:04.900Z,14.50
2018-05-07T22:03:34.004Z,14.20
2018-05-07T22:06:03.093Z,14.10
2018-05-07T22:08:32.213Z,14.10
2018-05-07T22:11:00.519Z,14.10
2018-05-07T22:13:28.880Z,14.10
2018-05-07T22:15:57.209Z,14.00
2018-05-07T22:18:27.220Z,14.00
2018-05-07T22:20:56.357Z,14.00
2018-05-07T22:23:25.080Z,13.90
2018-05-07T22:25:54.231Z,13.90
2018-05-07T22:28:22.675Z,13.90
2018-05-07T22:30:50.985Z,13.90
2018-05-07T22:33:19.320Z,13.90
2018-05-07T22:35:47.659Z,13.80
2018-05-07T22:38:16.775Z,13.70
2018-05-07T22:40:45.537Z,13.70
2018-05-07T22:43:13.874Z,13.70
2018-05-07T22:45:42.953Z,13.70
2018-05-07T22:48:12.052Z,13.70
2018-05-07T22:50:41.328Z,13.60
2018-05-07T22:53:09.826Z,13.60
2018-05-07T22:55:38.171Z,13.60
2018-05-07T22:58:07.452Z,13.60
2018-05-07T23:00:35.888Z,13.50
2018-05-07T23:03:04.259Z,13.50
2018-05-07T23:05:32.756Z,13.40
2018-05-07T23:08:01.078Z,13.40
2018-05-07T23:10:29.520Z,13.40
2018-05-07T23:12:57.920Z,13.30
2018-05-07T23:15:26.228Z,13.20
2018-05-07T23:17:54.571Z,13.20
2018-05-07T23:20:23.065Z,13.10
2018-05-07T23:22:51.456Z,13.10
2018-05-07T23:25:20.528Z,13.00
2018-05-07T23:27:48.883Z,13.00
2018-05-07T23:30:18.711Z,13.00
2018-05-07T23:32:47.027Z,13.00
2018-05-07T23:35:15.521Z,12.90
2018-05-07T23:37:45.372Z,12.80
2018-05-07T23:40:14.457Z,12.80
2018-05-07T23:42:42.979Z,12.80
2018-05-07T23:45:11.317Z,12.80
2018-05-07T23:47:41.328Z,12.80
2018-05-07T23:50:09.743Z,12.80
2018-05-07T23:52:38.824Z,12.70
2018-05-07T23:55:07.180Z,12.60
2018-05-07T23:57:35.570Z,12.60
